Main page
METAR-TAF:

METAR-TAF

Airports :

Ubon Ratchathani Airport

Ubon Ratchathani, Thailand

latitude: 15-15N, longitude: 104-52E, elevation: 123 m

Current weather observation

The report was made 57 minutes ago, at 17:00 UTC
Wind 13 kt from the Northeast
Temperature 17°C
Humidity 59%
Pressure 1019 hPa
Visibility: 9000 m

METAR: VTUU 061700Z 04013KT 9000 NSC 17/09 Q1019 NOSIG

Time: 00:57 (17:57 UTC)

Forecast

The report was made 57 minutes ago, at 17:00 UTC
Forecast valid from 06 at 18 UTC to 07 at 18 UTC
Wind 13 kt from the Northeast
Visibility 10 km or more
Few clouds at a height of 3500 ft

TAF: VTUU 061700Z 0618/0718 04013KT 9999 FEW035

Weather observations and forecasts of more than 4000 airports (METAR and TAF reports).

The available stations are represented by yellow and red dots on the map.

Hover mouse over dot to see the name of the station.

Then click to see weather observations and forecasts.

To change the map : click on the green buttons with a black cross to zoom in, on the green button with a dash to zoom out, or on the green arrows for adjacent maps.


METAR-TAF: